sensor_id;sensor_type;location;lat;lon;timestamp;P1;durP1;ratioP1;P2;durP2;ratioP2
68353;SDS011;55274;43.060;25.618;2024-03-08T00:00:03;1.60;;;0.80;;
68353;SDS011;55274;43.060;25.618;2024-03-08T00:02:37;1.58;;;0.80;;
68353;SDS011;55274;43.060;25.618;2024-03-08T00:05:04;1.73;;;0.93;;
68353;SDS011;55274;43.060;25.618;2024-03-08T00:07:31;1.98;;;1.08;;
68353;SDS011;55274;43.060;25.618;2024-03-08T00:09:57;1.60;;;0.93;;
68353;SDS011;55274;43.060;25.618;2024-03-08T00:12:23;1.77;;;0.70;;
68353;SDS011;55274;43.060;25.618;2024-03-08T00:14:51;1.42;;;0.80;;
68353;SDS011;55274;43.060;25.618;2024-03-08T00:17:16;1.55;;;0.75;;
68353;SDS011;55274;43.060;25.618;2024-03-08T00:19:42;2.55;;;0.88;;
68353;SDS011;55274;43.060;25.618;2024-03-08T00:22:08;1.25;;;0.60;;
68353;SDS011;55274;43.060;25.618;2024-03-08T00:24:36;1.42;;;0.70;;
68353;SDS011;55274;43.060;25.618;2024-03-08T00:27:02;1.08;;;0.60;;
68353;SDS011;55274;43.060;25.618;2024-03-08T00:29:29;2.47;;;0.60;;
68353;SDS011;55274;43.060;25.618;2024-03-08T00:31:55;1.00;;;0.55;;
68353;SDS011;55274;43.060;25.618;2024-03-08T00:34:21;1.27;;;0.68;;
68353;SDS011;55274;43.060;25.618;2024-03-08T00:36:47;1.10;;;0.50;;
68353;SDS011;55274;43.060;25.618;2024-03-08T00:39:14;1.08;;;0.60;;
68353;SDS011;55274;43.060;25.618;2024-03-08T00:41:39;0.77;;;0.60;;
68353;SDS011;55274;43.060;25.618;2024-03-08T00:44:05;0.43;;;0.40;;
68353;SDS011;55274;43.060;25.618;2024-03-08T00:46:31;0.70;;;0.60;;
68353;SDS011;55274;43.060;25.618;2024-03-08T00:48:57;1.92;;;0.60;;
68353;SDS011;55274;43.060;25.618;2024-03-08T00:51:22;1.17;;;0.43;;
68353;SDS011;55274;43.060;25.618;2024-03-08T00:53:48;0.80;;;0.70;;
68353;SDS011;55274;43.060;25.618;2024-03-08T00:56:14;0.88;;;0.50;;
68353;SDS011;55274;43.060;25.618;2024-03-08T00:58:40;0.80;;;0.43;;
68353;SDS011;55274;43.060;25.618;2024-03-08T01:01:05;1.35;;;0.52;;
68353;SDS011;55274;43.060;25.618;2024-03-08T01:03:31;0.82;;;0.68;;
68353;SDS011;55274;43.060;25.618;2024-03-08T01:05:57;0.82;;;0.43;;
68353;SDS011;55274;43.060;25.618;2024-03-08T01:08:26;0.82;;;0.82;;
68353;SDS011;55274;43.060;25.618;2024-03-08T01:10:52;1.02;;;0.63;;
68353;SDS011;55274;43.060;25.618;2024-03-08T01:13:18;1.20;;;0.85;;
68353;SDS011;55274;43.060;25.618;2024-03-08T01:15:45;0.98;;;0.73;;
68353;SDS011;55274;43.060;25.618;2024-03-08T01:18:11;2.17;;;0.63;;
68353;SDS011;55274;43.060;25.618;2024-03-08T01:20:37;1.33;;;0.57;;
68353;SDS011;55274;43.060;25.618;2024-03-08T01:23:02;0.90;;;0.70;;
68353;SDS011;55274;43.060;25.618;2024-03-08T01:25:32;1.73;;;0.60;;
68353;SDS011;55274;43.060;25.618;2024-03-08T01:27:58;1.20;;;0.70;;
68353;SDS011;55274;43.060;25.618;2024-03-08T01:30:24;1.80;;;0.70;;
68353;SDS011;55274;43.060;25.618;2024-03-08T01:32:50;2.03;;;0.95;;
68353;SDS011;55274;43.060;25.618;2024-03-08T01:35:16;1.92;;;1.00;;
68353;SDS011;55274;43.060;25.618;2024-03-08T01:37:41;2.63;;;1.40;;
68353;SDS011;55274;43.060;25.618;2024-03-08T01:40:07;7.13;;;2.50;;
68353;SDS011;55274;43.060;25.618;2024-03-08T01:42:36;5.38;;;2.28;;
68353;SDS011;55274;43.060;25.618;2024-03-08T01:45:05;4.20;;;2.22;;
68353;SDS011;55274;43.060;25.618;2024-03-08T01:47:32;6.57;;;2.78;;
68353;SDS011;55274;43.060;25.618;2024-03-08T01:49:59;5.28;;;2.50;;
68353;SDS011;55274;43.060;25.618;2024-03-08T01:52:28;9.73;;;4.10;;
68353;SDS011;55274;43.060;25.618;2024-03-08T01:54:57;20.80;;;8.13;;
68353;SDS011;55274;43.060;25.618;2024-03-08T01:57:26;17.92;;;7.40;;
68353;SDS011;55274;43.060;25.618;2024-03-08T01:59:53;19.38;;;8.27;;
68353;SDS011;55274;43.060;25.618;2024-03-08T02:02:21;21.40;;;8.82;;
68353;SDS011;55274;43.060;25.618;2024-03-08T02:04:47;22.80;;;9.13;;
68353;SDS011;55274;43.060;25.618;2024-03-08T02:07:14;24.70;;;10.05;;
68353;SDS011;55274;43.060;25.618;2024-03-08T02:09:39;21.25;;;9.40;;
68353;SDS011;55274;43.060;25.618;2024-03-08T02:12:06;21.42;;;9.25;;
68353;SDS011;55274;43.060;25.618;2024-03-08T02:14:33;23.95;;;9.65;;
68353;SDS011;55274;43.060;25.618;2024-03-08T02:17:01;24.40;;;9.45;;
68353;SDS011;55274;43.060;25.618;2024-03-08T02:19:27;21.63;;;9.60;;
68353;SDS011;55274;43.060;25.618;2024-03-08T02:21:53;22.35;;;9.55;;
68353;SDS011;55274;43.060;25.618;2024-03-08T02:24:19;26.17;;;10.15;;
68353;SDS011;55274;43.060;25.618;2024-03-08T02:26:45;23.70;;;9.77;;
68353;SDS011;55274;43.060;25.618;2024-03-08T02:29:11;22.10;;;9.75;;
68353;SDS011;55274;43.060;25.618;2024-03-08T02:31:37;23.30;;;10.00;;
68353;SDS011;55274;43.060;25.618;2024-03-08T02:34:04;25.65;;;10.23;;
68353;SDS011;55274;43.060;25.618;2024-03-08T02:36:30;26.60;;;10.75;;
68353;SDS011;55274;43.060;25.618;2024-03-08T02:39:01;25.50;;;10.80;;
68353;SDS011;55274;43.060;25.618;2024-03-08T02:41:28;26.52;;;10.73;;
68353;SDS011;55274;43.060;25.618;2024-03-08T02:43:53;26.70;;;10.50;;
68353;SDS011;55274;43.060;25.618;2024-03-08T02:46:20;30.83;;;11.27;;
68353;SDS011;55274;43.060;25.618;2024-03-08T02:48:46;25.88;;;10.45;;
68353;SDS011;55274;43.060;25.618;2024-03-08T02:51:12;28.80;;;10.90;;
68353;SDS011;55274;43.060;25.618;2024-03-08T02:53:38;25.73;;;10.13;;
68353;SDS011;55274;43.060;25.618;2024-03-08T02:56:04;26.83;;;10.15;;
68353;SDS011;55274;43.060;25.618;2024-03-08T02:58:34;25.85;;;9.65;;
68353;SDS011;55274;43.060;25.618;2024-03-08T03:00:59;26.10;;;10.88;;
68353;SDS011;55274;43.060;25.618;2024-03-08T03:03:25;26.35;;;10.27;;
68353;SDS011;55274;43.060;25.618;2024-03-08T03:05:52;25.63;;;11.18;;
68353;SDS011;55274;43.060;25.618;2024-03-08T03:08:20;22.92;;;10.32;;
68353;SDS011;55274;43.060;25.618;2024-03-08T03:10:46;21.35;;;10.15;;
68353;SDS011;55274;43.060;25.618;2024-03-08T03:13:12;21.23;;;10.52;;
68353;SDS011;55274;43.060;25.618;2024-03-08T03:15:39;26.55;;;10.57;;
68353;SDS011;55274;43.060;25.618;2024-03-08T03:18:08;22.05;;;10.05;;
68353;SDS011;55274;43.060;25.618;2024-03-08T03:20:34;23.10;;;10.30;;
68353;SDS011;55274;43.060;25.618;2024-03-08T03:25:33;25.75;;;10.20;;
68353;SDS011;55274;43.060;25.618;2024-03-08T03:28:00;24.55;;;10.30;;
68353;SDS011;55274;43.060;25.618;2024-03-08T03:30:26;26.45;;;9.38;;
68353;SDS011;55274;43.060;25.618;2024-03-08T03:32:56;23.23;;;9.73;;
68353;SDS011;55274;43.060;25.618;2024-03-08T03:35:25;22.50;;;9.48;;
68353;SDS011;55274;43.060;25.618;2024-03-08T03:37:51;20.30;;;8.63;;
68353;SDS011;55274;43.060;25.618;2024-03-08T03:40:30;22.42;;;9.35;;
68353;SDS011;55274;43.060;25.618;2024-03-08T03:42:57;22.63;;;9.80;;
68353;SDS011;55274;43.060;25.618;2024-03-08T03:45:23;24.63;;;9.30;;
68353;SDS011;55274;43.060;25.618;2024-03-08T03:47:49;23.58;;;9.50;;
68353;SDS011;55274;43.060;25.618;2024-03-08T03:50:17;18.35;;;8.15;;
68353;SDS011;55274;43.060;25.618;2024-03-08T03:52:44;23.30;;;9.68;;
68353;SDS011;55274;43.060;25.618;2024-03-08T03:55:13;22.52;;;9.75;;
68353;SDS011;55274;43.060;25.618;2024-03-08T03:57:40;21.15;;;9.13;;
68353;SDS011;55274;43.060;25.618;2024-03-08T04:00:06;24.60;;;10.50;;
68353;SDS011;55274;43.060;25.618;2024-03-08T04:02:39;20.73;;;8.57;;
68353;SDS011;55274;43.060;25.618;2024-03-08T04:05:06;21.25;;;8.45;;
68353;SDS011;55274;43.060;25.618;2024-03-08T04:07:33;20.90;;;9.35;;
68353;SDS011;55274;43.060;25.618;2024-03-08T04:10:00;19.17;;;8.30;;
68353;SDS011;55274;43.060;25.618;2024-03-08T04:12:29;20.30;;;8.57;;
68353;SDS011;55274;43.060;25.618;2024-03-08T04:14:55;20.00;;;8.73;;
68353;SDS011;55274;43.060;25.618;2024-03-08T04:17:21;21.30;;;9.13;;
68353;SDS011;55274;43.060;25.618;2024-03-08T04:19:49;18.88;;;9.20;;
68353;SDS011;55274;43.060;25.618;2024-03-08T04:22:15;16.67;;;8.48;;
68353;SDS011;55274;43.060;25.618;2024-03-08T04:24:43;19.50;;;8.82;;
68353;SDS011;55274;43.060;25.618;2024-03-08T04:27:09;19.10;;;9.07;;
68353;SDS011;55274;43.060;25.618;2024-03-08T04:29:35;15.48;;;7.68;;
68353;SDS011;55274;43.060;25.618;2024-03-08T04:32:04;19.98;;;8.68;;
68353;SDS011;55274;43.060;25.618;2024-03-08T04:34:31;16.45;;;8.40;;
68353;SDS011;55274;43.060;25.618;2024-03-08T04:36:59;17.75;;;8.35;;
68353;SDS011;55274;43.060;25.618;2024-03-08T04:39:25;17.90;;;8.52;;
68353;SDS011;55274;43.060;25.618;2024-03-08T04:41:53;18.08;;;7.75;;
68353;SDS011;55274;43.060;25.618;2024-03-08T04:44:22;17.55;;;7.82;;
68353;SDS011;55274;43.060;25.618;2024-03-08T04:46:49;18.73;;;8.93;;
68353;SDS011;55274;43.060;25.618;2024-03-08T04:49:15;15.70;;;7.95;;
68353;SDS011;55274;43.060;25.618;2024-03-08T04:51:41;16.05;;;8.07;;
68353;SDS011;55274;43.060;25.618;2024-03-08T04:54:08;17.70;;;7.93;;
68353;SDS011;55274;43.060;25.618;2024-03-08T04:56:34;16.58;;;8.23;;
68353;SDS011;55274;43.060;25.618;2024-03-08T04:59:01;15.45;;;7.40;;
68353;SDS011;55274;43.060;25.618;2024-03-08T05:01:26;15.10;;;7.22;;
68353;SDS011;55274;43.060;25.618;2024-03-08T05:03:52;14.50;;;6.72;;
68353;SDS011;55274;43.060;25.618;2024-03-08T05:06:20;17.05;;;7.85;;
68353;SDS011;55274;43.060;25.618;2024-03-08T05:08:46;15.02;;;7.10;;
68353;SDS011;55274;43.060;25.618;2024-03-08T05:11:12;13.80;;;6.50;;
68353;SDS011;55274;43.060;25.618;2024-03-08T05:13:40;13.60;;;6.68;;
68353;SDS011;55274;43.060;25.618;2024-03-08T05:16:06;13.38;;;6.60;;
68353;SDS011;55274;43.060;25.618;2024-03-08T05:18:33;13.48;;;5.65;;
68353;SDS011;55274;43.060;25.618;2024-03-08T05:20:59;12.88;;;6.47;;
68353;SDS011;55274;43.060;25.618;2024-03-08T05:23:25;11.90;;;6.85;;
68353;SDS011;55274;43.060;25.618;2024-03-08T05:25:50;13.52;;;6.63;;
68353;SDS011;55274;43.060;25.618;2024-03-08T05:28:16;12.60;;;6.25;;
68353;SDS011;55274;43.060;25.618;2024-03-08T05:30:42;15.20;;;7.32;;
68353;SDS011;55274;43.060;25.618;2024-03-08T05:33:08;13.52;;;6.53;;
68353;SDS011;55274;43.060;25.618;2024-03-08T05:35:39;13.35;;;6.93;;
68353;SDS011;55274;43.060;25.618;2024-03-08T05:38:05;15.48;;;7.18;;
68353;SDS011;55274;43.060;25.618;2024-03-08T05:40:32;17.17;;;8.00;;
68353;SDS011;55274;43.060;25.618;2024-03-08T05:42:58;18.77;;;8.05;;
68353;SDS011;55274;43.060;25.618;2024-03-08T05:45:26;18.75;;;8.95;;
68353;SDS011;55274;43.060;25.618;2024-03-08T05:47:52;20.48;;;9.23;;
68353;SDS011;55274;43.060;25.618;2024-03-08T05:50:18;20.67;;;9.35;;
68353;SDS011;55274;43.060;25.618;2024-03-08T05:52:44;21.70;;;9.23;;
68353;SDS011;55274;43.060;25.618;2024-03-08T05:55:10;23.00;;;9.45;;
68353;SDS011;55274;43.060;25.618;2024-03-08T05:57:39;24.08;;;10.10;;
68353;SDS011;55274;43.060;25.618;2024-03-08T06:00:05;22.38;;;8.73;;
68353;SDS011;55274;43.060;25.618;2024-03-08T06:02:32;25.73;;;10.60;;
68353;SDS011;55274;43.060;25.618;2024-03-08T06:04:58;22.65;;;10.35;;
68353;SDS011;55274;43.060;25.618;2024-03-08T06:07:24;23.73;;;10.10;;
68353;SDS011;55274;43.060;25.618;2024-03-08T06:09:49;25.20;;;10.65;;
68353;SDS011;55274;43.060;25.618;2024-03-08T06:12:15;28.83;;;11.68;;
68353;SDS011;55274;43.060;25.618;2024-03-08T06:14:44;25.40;;;10.60;;
68353;SDS011;55274;43.060;25.618;2024-03-08T06:17:11;21.83;;;9.38;;
68353;SDS011;55274;43.060;25.618;2024-03-08T06:19:37;22.77;;;9.15;;
68353;SDS011;55274;43.060;25.618;2024-03-08T06:22:02;24.10;;;9.70;;
68353;SDS011;55274;43.060;25.618;2024-03-08T06:24:33;23.00;;;9.88;;
68353;SDS011;55274;43.060;25.618;2024-03-08T06:27:01;22.73;;;9.75;;
68353;SDS011;55274;43.060;25.618;2024-03-08T06:29:27;24.92;;;9.93;;
68353;SDS011;55274;43.060;25.618;2024-03-08T06:31:53;20.30;;;8.98;;
68353;SDS011;55274;43.060;25.618;2024-03-08T06:34:19;22.45;;;9.48;;
68353;SDS011;55274;43.060;25.618;2024-03-08T06:36:44;21.08;;;9.88;;
68353;SDS011;55274;43.060;25.618;2024-03-08T06:39:10;23.45;;;9.68;;
68353;SDS011;55274;43.060;25.618;2024-03-08T06:41:36;28.15;;;10.98;;
68353;SDS011;55274;43.060;25.618;2024-03-08T06:44:02;24.45;;;10.80;;
68353;SDS011;55274;43.060;25.618;2024-03-08T06:46:28;32.10;;;11.27;;
68353;SDS011;55274;43.060;25.618;2024-03-08T06:48:54;27.45;;;11.60;;
68353;SDS011;55274;43.060;25.618;2024-03-08T06:51:20;25.42;;;10.45;;
68353;SDS011;55274;43.060;25.618;2024-03-08T06:53:45;27.00;;;10.82;;
68353;SDS011;55274;43.060;25.618;2024-03-08T06:56:11;24.45;;;10.50;;
68353;SDS011;55274;43.060;25.618;2024-03-08T06:58:37;20.65;;;9.98;;
68353;SDS011;55274;43.060;25.618;2024-03-08T07:01:03;21.95;;;10.50;;
68353;SDS011;55274;43.060;25.618;2024-03-08T07:03:32;23.92;;;10.55;;
68353;SDS011;55274;43.060;25.618;2024-03-08T07:05:58;28.10;;;12.10;;
68353;SDS011;55274;43.060;25.618;2024-03-08T07:08:26;28.95;;;11.93;;
68353;SDS011;55274;43.060;25.618;2024-03-08T07:10:53;26.42;;;11.27;;
68353;SDS011;55274;43.060;25.618;2024-03-08T07:13:19;29.30;;;12.65;;
68353;SDS011;55274;43.060;25.618;2024-03-08T07:15:45;30.45;;;12.75;;
68353;SDS011;55274;43.060;25.618;2024-03-08T07:18:11;31.77;;;13.35;;
68353;SDS011;55274;43.060;25.618;2024-03-08T07:20:40;31.85;;;13.00;;
68353;SDS011;55274;43.060;25.618;2024-03-08T07:23:07;30.05;;;13.25;;
68353;SDS011;55274;43.060;25.618;2024-03-08T07:25:33;33.40;;;13.48;;
68353;SDS011;55274;43.060;25.618;2024-03-08T07:28:00;31.83;;;12.73;;
68353;SDS011;55274;43.060;25.618;2024-03-08T07:30:26;32.97;;;13.57;;
68353;SDS011;55274;43.060;25.618;2024-03-08T07:33:10;35.13;;;13.90;;
68353;SDS011;55274;43.060;25.618;2024-03-08T07:35:37;29.90;;;12.30;;
68353;SDS011;55274;43.060;25.618;2024-03-08T07:38:07;31.48;;;12.65;;
68353;SDS011;55274;43.060;25.618;2024-03-08T07:40:41;27.17;;;11.98;;
68353;SDS011;55274;43.060;25.618;2024-03-08T07:43:10;32.15;;;12.70;;
68353;SDS011;55274;43.060;25.618;2024-03-08T07:45:39;29.88;;;12.55;;
68353;SDS011;55274;43.060;25.618;2024-03-08T07:48:05;32.47;;;12.13;;
68353;SDS011;55274;43.060;25.618;2024-03-08T07:50:37;26.85;;;11.65;;
68353;SDS011;55274;43.060;25.618;2024-03-08T07:53:04;26.30;;;11.15;;
68353;SDS011;55274;43.060;25.618;2024-03-08T07:55:32;31.23;;;11.82;;
68353;SDS011;55274;43.060;25.618;2024-03-08T07:58:01;23.27;;;11.02;;
68353;SDS011;55274;43.060;25.618;2024-03-08T08:00:31;29.35;;;12.32;;
68353;SDS011;55274;43.060;25.618;2024-03-08T08:02:57;26.63;;;11.30;;
68353;SDS011;55274;43.060;25.618;2024-03-08T08:05:22;27.30;;;11.73;;
68353;SDS011;55274;43.060;25.618;2024-03-08T08:07:48;25.60;;;11.27;;
68353;SDS011;55274;43.060;25.618;2024-03-08T08:10:15;30.25;;;12.32;;
68353;SDS011;55274;43.060;25.618;2024-03-08T08:12:47;27.73;;;11.52;;
68353;SDS011;55274;43.060;25.618;2024-03-08T08:15:14;31.33;;;11.32;;
68353;SDS011;55274;43.060;25.618;2024-03-08T08:17:46;31.70;;;11.85;;
68353;SDS011;55274;43.060;25.618;2024-03-08T08:20:12;25.52;;;11.02;;
68353;SDS011;55274;43.060;25.618;2024-03-08T08:22:39;23.13;;;9.75;;
68353;SDS011;55274;43.060;25.618;2024-03-08T08:25:05;24.80;;;9.77;;
68353;SDS011;55274;43.060;25.618;2024-03-08T08:27:32;21.95;;;10.30;;
68353;SDS011;55274;43.060;25.618;2024-03-08T08:29:58;24.88;;;10.07;;
68353;SDS011;55274;43.060;25.618;2024-03-08T08:32:24;26.05;;;10.63;;
68353;SDS011;55274;43.060;25.618;2024-03-08T08:34:50;24.95;;;10.10;;
68353;SDS011;55274;43.060;25.618;2024-03-08T08:37:16;27.63;;;10.05;;
68353;SDS011;55274;43.060;25.618;2024-03-08T08:39:41;26.63;;;9.82;;
68353;SDS011;55274;43.060;25.618;2024-03-08T08:42:07;25.42;;;9.90;;
68353;SDS011;55274;43.060;25.618;2024-03-08T08:44:34;23.80;;;9.20;;
68353;SDS011;55274;43.060;25.618;2024-03-08T08:47:01;23.70;;;10.43;;
68353;SDS011;55274;43.060;25.618;2024-03-08T08:49:28;22.35;;;9.75;;
68353;SDS011;55274;43.060;25.618;2024-03-08T08:51:56;23.67;;;9.38;;
68353;SDS011;55274;43.060;25.618;2024-03-08T08:54:23;19.73;;;9.20;;
68353;SDS011;55274;43.060;25.618;2024-03-08T08:56:50;21.85;;;8.55;;
68353;SDS011;55274;43.060;25.618;2024-03-08T08:59:16;17.27;;;7.90;;
68353;SDS011;55274;43.060;25.618;2024-03-08T09:01:45;18.35;;;8.63;;
68353;SDS011;55274;43.060;25.618;2024-03-08T09:04:15;21.00;;;9.13;;
68353;SDS011;55274;43.060;25.618;2024-03-08T09:06:41;18.35;;;7.97;;
68353;SDS011;55274;43.060;25.618;2024-03-08T09:09:07;21.90;;;9.15;;
68353;SDS011;55274;43.060;25.618;2024-03-08T09:11:39;21.63;;;9.80;;
68353;SDS011;55274;43.060;25.618;2024-03-08T09:14:07;22.85;;;9.23;;
68353;SDS011;55274;43.060;25.618;2024-03-08T09:16:34;22.58;;;8.73;;
68353;SDS011;55274;43.060;25.618;2024-03-08T09:18:59;19.70;;;8.52;;
68353;SDS011;55274;43.060;25.618;2024-03-08T09:21:25;23.90;;;9.00;;
68353;SDS011;55274;43.060;25.618;2024-03-08T09:23:52;33.55;;;9.73;;
68353;SDS011;55274;43.060;25.618;2024-03-08T09:26:19;22.48;;;8.38;;
68353;SDS011;55274;43.060;25.618;2024-03-08T09:28:45;30.08;;;8.32;;
68353;SDS011;55274;43.060;25.618;2024-03-08T09:31:11;21.50;;;8.55;;
68353;SDS011;55274;43.060;25.618;2024-03-08T09:33:37;16.98;;;7.63;;
68353;SDS011;55274;43.060;25.618;2024-03-08T09:36:04;18.02;;;7.10;;
68353;SDS011;55274;43.060;25.618;2024-03-08T09:38:33;20.92;;;7.18;;
68353;SDS011;55274;43.060;25.618;2024-03-08T09:40:59;23.05;;;8.10;;
68353;SDS011;55274;43.060;25.618;2024-03-08T09:43:27;16.75;;;6.95;;
68353;SDS011;55274;43.060;25.618;2024-03-08T09:45:53;28.58;;;8.10;;
68353;SDS011;55274;43.060;25.618;2024-03-08T09:48:20;22.50;;;7.97;;
68353;SDS011;55274;43.060;25.618;2024-03-08T09:50:48;33.53;;;10.55;;
68353;SDS011;55274;43.060;25.618;2024-03-08T09:53:14;24.80;;;10.32;;
68353;SDS011;55274;43.060;25.618;2024-03-08T09:55:41;18.58;;;8.55;;
68353;SDS011;55274;43.060;25.618;2024-03-08T09:58:13;15.35;;;7.60;;
68353;SDS011;55274;43.060;25.618;2024-03-08T10:00:52;25.83;;;8.60;;
68353;SDS011;55274;43.060;25.618;2024-03-08T10:03:19;16.88;;;7.88;;
68353;SDS011;55274;43.060;25.618;2024-03-08T10:05:45;16.92;;;7.03;;
68353;SDS011;55274;43.060;25.618;2024-03-08T10:08:11;15.57;;;7.95;;
68353;SDS011;55274;43.060;25.618;2024-03-08T10:10:38;17.40;;;8.98;;
68353;SDS011;55274;43.060;25.618;2024-03-08T10:13:07;18.52;;;8.77;;
68353;SDS011;55274;43.060;25.618;2024-03-08T10:15:34;18.40;;;8.20;;
68353;SDS011;55274;43.060;25.618;2024-03-08T10:18:05;18.80;;;7.80;;
68353;SDS011;55274;43.060;25.618;2024-03-08T10:20:32;18.00;;;7.93;;
68353;SDS011;55274;43.060;25.618;2024-03-08T10:23:01;19.75;;;8.05;;
68353;SDS011;55274;43.060;25.618;2024-03-08T10:25:34;18.65;;;7.10;;
68353;SDS011;55274;43.060;25.618;2024-03-08T10:28:03;19.30;;;8.25;;
68353;SDS011;55274;43.060;25.618;2024-03-08T10:30:32;19.13;;;7.22;;
68353;SDS011;55274;43.060;25.618;2024-03-08T10:32:58;20.25;;;7.95;;
68353;SDS011;55274;43.060;25.618;2024-03-08T10:35:23;27.50;;;9.07;;
68353;SDS011;55274;43.060;25.618;2024-03-08T10:37:51;23.92;;;9.25;;
68353;SDS011;55274;43.060;25.618;2024-03-08T10:40:24;24.85;;;8.70;;
68353;SDS011;55274;43.060;25.618;2024-03-08T10:42:54;21.13;;;8.40;;
68353;SDS011;55274;43.060;25.618;2024-03-08T10:47:48;22.52;;;8.52;;
68353;SDS011;55274;43.060;25.618;2024-03-08T10:50:20;20.48;;;8.25;;
68353;SDS011;55274;43.060;25.618;2024-03-08T10:52:50;21.35;;;8.60;;
68353;SDS011;55274;43.060;25.618;2024-03-08T10:55:19;25.08;;;8.73;;
68353;SDS011;55274;43.060;25.618;2024-03-08T10:57:46;21.25;;;8.90;;
68353;SDS011;55274;43.060;25.618;2024-03-08T11:00:16;19.30;;;7.97;;
68353;SDS011;55274;43.060;25.618;2024-03-08T11:02:44;21.25;;;8.90;;
68353;SDS011;55274;43.060;25.618;2024-03-08T11:05:10;24.52;;;8.10;;
68353;SDS011;55274;43.060;25.618;2024-03-08T11:08:00;28.00;;;9.43;;
68353;SDS011;55274;43.060;25.618;2024-03-08T11:10:28;24.38;;;9.88;;
68353;SDS011;55274;43.060;25.618;2024-03-08T11:12:54;27.73;;;10.00;;
68353;SDS011;55274;43.060;25.618;2024-03-08T11:15:20;28.08;;;9.35;;
68353;SDS011;55274;43.060;25.618;2024-03-08T11:17:49;22.42;;;8.48;;
68353;SDS011;55274;43.060;25.618;2024-03-08T11:20:16;19.77;;;8.70;;
68353;SDS011;55274;43.060;25.618;2024-03-08T11:31:22;22.35;;;8.90;;
68353;SDS011;55274;43.060;25.618;2024-03-08T11:33:31;21.33;;;7.97;;
68353;SDS011;55274;43.060;25.618;2024-03-08T11:36:07;22.45;;;9.18;;
68353;SDS011;55274;43.060;25.618;2024-03-08T11:38:40;20.50;;;8.70;;
68353;SDS011;55274;43.060;25.618;2024-03-08T11:41:07;18.95;;;8.02;;
68353;SDS011;55274;43.060;25.618;2024-03-08T11:43:33;33.47;;;13.35;;
68353;SDS011;55274;43.060;25.618;2024-03-08T11:46:08;34.08;;;13.25;;
68353;SDS011;55274;43.060;25.618;2024-03-08T11:48:34;28.05;;;10.77;;
68353;SDS011;55274;43.060;25.618;2024-03-08T11:51:03;27.27;;;12.27;;
68353;SDS011;55274;43.060;25.618;2024-03-08T11:53:30;26.17;;;11.18;;
68353;SDS011;55274;43.060;25.618;2024-03-08T11:56:13;19.45;;;8.63;;
68353;SDS011;55274;43.060;25.618;2024-03-08T11:58:40;18.10;;;8.55;;
68353;SDS011;55274;43.060;25.618;2024-03-08T12:01:06;26.73;;;10.90;;
68353;SDS011;55274;43.060;25.618;2024-03-08T12:03:42;24.75;;;11.77;;
68353;SDS011;55274;43.060;25.618;2024-03-08T12:06:11;25.45;;;9.85;;
68353;SDS011;55274;43.060;25.618;2024-03-08T12:08:39;20.85;;;9.13;;
68353;SDS011;55274;43.060;25.618;2024-03-08T12:11:05;19.38;;;8.73;;
68353;SDS011;55274;43.060;25.618;2024-03-08T12:13:32;19.83;;;8.52;;
68353;SDS011;55274;43.060;25.618;2024-03-08T12:15:59;20.75;;;9.77;;
68353;SDS011;55274;43.060;25.618;2024-03-08T12:18:34;18.27;;;8.98;;
68353;SDS011;55274;43.060;25.618;2024-03-08T12:21:04;21.27;;;9.75;;
68353;SDS011;55274;43.060;25.618;2024-03-08T12:23:31;29.02;;;12.02;;
68353;SDS011;55274;43.060;25.618;2024-03-08T12:25:56;26.23;;;11.35;;
68353;SDS011;55274;43.060;25.618;2024-03-08T12:28:22;23.60;;;11.07;;
68353;SDS011;55274;43.060;25.618;2024-03-08T12:30:51;26.35;;;11.27;;
68353;SDS011;55274;43.060;25.618;2024-03-08T12:33:23;22.98;;;11.00;;
68353;SDS011;55274;43.060;25.618;2024-03-08T12:35:50;18.52;;;8.88;;
68353;SDS011;55274;43.060;25.618;2024-03-08T12:38:20;20.23;;;8.40;;
68353;SDS011;55274;43.060;25.618;2024-03-08T12:40:50;22.65;;;9.55;;
68353;SDS011;55274;43.060;25.618;2024-03-08T12:43:19;17.52;;;8.40;;
68353;SDS011;55274;43.060;25.618;2024-03-08T12:45:46;29.65;;;11.13;;
68353;SDS011;55274;43.060;25.618;2024-03-08T12:48:15;24.33;;;10.60;;
68353;SDS011;55274;43.060;25.618;2024-03-08T12:50:41;28.67;;;12.35;;
68353;SDS011;55274;43.060;25.618;2024-03-08T12:53:10;27.80;;;11.45;;
68353;SDS011;55274;43.060;25.618;2024-03-08T12:55:36;24.13;;;9.88;;
68353;SDS011;55274;43.060;25.618;2024-03-08T12:58:02;28.00;;;12.75;;
68353;SDS011;55274;43.060;25.618;2024-03-08T13:00:28;25.27;;;11.20;;
68353;SDS011;55274;43.060;25.618;2024-03-08T13:02:54;26.92;;;11.00;;
68353;SDS011;55274;43.060;25.618;2024-03-08T13:05:20;23.02;;;10.25;;
68353;SDS011;55274;43.060;25.618;2024-03-08T13:07:46;22.55;;;10.63;;
68353;SDS011;55274;43.060;25.618;2024-03-08T13:10:15;33.50;;;14.88;;
68353;SDS011;55274;43.060;25.618;2024-03-08T13:12:44;22.55;;;10.10;;
68353;SDS011;55274;43.060;25.618;2024-03-08T13:15:10;26.98;;;10.60;;
68353;SDS011;55274;43.060;25.618;2024-03-08T13:17:40;24.80;;;10.77;;
68353;SDS011;55274;43.060;25.618;2024-03-08T13:20:08;24.08;;;9.63;;
68353;SDS011;55274;43.060;25.618;2024-03-08T13:22:34;25.10;;;10.57;;
68353;SDS011;55274;43.060;25.618;2024-03-08T13:25:01;28.20;;;10.85;;
68353;SDS011;55274;43.060;25.618;2024-03-08T13:27:27;24.92;;;10.75;;
68353;SDS011;55274;43.060;25.618;2024-03-08T13:29:54;26.77;;;11.02;;
68353;SDS011;55274;43.060;25.618;2024-03-08T13:32:19;26.40;;;11.85;;
68353;SDS011;55274;43.060;25.618;2024-03-08T13:34:45;23.08;;;10.98;;
68353;SDS011;55274;43.060;25.618;2024-03-08T13:37:16;23.67;;;10.65;;
68353;SDS011;55274;43.060;25.618;2024-03-08T13:39:42;22.40;;;9.30;;
68353;SDS011;55274;43.060;25.618;2024-03-08T13:42:11;20.70;;;9.35;;
68353;SDS011;55274;43.060;25.618;2024-03-08T13:44:44;21.85;;;9.70;;
68353;SDS011;55274;43.060;25.618;2024-03-08T13:47:16;23.00;;;10.05;;
68353;SDS011;55274;43.060;25.618;2024-03-08T13:49:43;23.63;;;10.15;;
68353;SDS011;55274;43.060;25.618;2024-03-08T13:52:09;27.98;;;11.80;;
68353;SDS011;55274;43.060;25.618;2024-03-08T13:54:36;30.65;;;13.63;;
68353;SDS011;55274;43.060;25.618;2024-03-08T13:57:04;29.60;;;12.73;;
68353;SDS011;55274;43.060;25.618;2024-03-08T13:59:30;29.30;;;12.40;;
68353;SDS011;55274;43.060;25.618;2024-03-08T14:01:58;30.75;;;12.18;;
68353;SDS011;55274;43.060;25.618;2024-03-08T14:04:26;27.00;;;10.75;;
68353;SDS011;55274;43.060;25.618;2024-03-08T14:06:52;29.60;;;12.63;;
68353;SDS011;55274;43.060;25.618;2024-03-08T14:09:23;33.90;;;11.95;;
68353;SDS011;55274;43.060;25.618;2024-03-08T14:11:50;33.28;;;13.70;;
68353;SDS011;55274;43.060;25.618;2024-03-08T14:14:19;34.67;;;14.15;;
68353;SDS011;55274;43.060;25.618;2024-03-08T14:16:47;34.67;;;14.35;;
68353;SDS011;55274;43.060;25.618;2024-03-08T14:19:13;32.33;;;12.57;;
68353;SDS011;55274;43.060;25.618;2024-03-08T14:21:40;28.48;;;11.95;;
68353;SDS011;55274;43.060;25.618;2024-03-08T14:24:07;30.23;;;11.80;;
68353;SDS011;55274;43.060;25.618;2024-03-08T14:26:34;31.58;;;13.18;;
68353;SDS011;55274;43.060;25.618;2024-03-08T14:28:59;32.95;;;13.27;;
68353;SDS011;55274;43.060;25.618;2024-03-08T14:31:25;29.75;;;11.73;;